Terminal Aerodrome Forecast
Issued by NWS Charleston, WV

Current Version | Previous Version | Text Only | Print | Product List | Glossary Off
Versions: 1 2 3 4 5 6 7 8 9 10 11 12 13 14 15 16 17 18 19 20 21 22 23 24 25 26

000
FTUS41 KRLX 040240 AAC
TAFBKW
TAF AMD
KBKW 040240Z 0403/0424 34005KT P6SM SCT008 BKN035
      TEMPO 0403/0407 3SM -SHRA BR SCT008 BKN012 BKN025
     FM040700 VRB03KT 6SM BR BKN008
      TEMPO 0407/0411 3SM BR SCT015 SCT025 BKN050
     FM041400 26005KT P6SM BKN015
     FM041600 27006KT P6SM BKN025
     FM042200 27006KT 6SM SHRA BR VCTS BKN040CB=

USA.gov is the U.S. government's official web portal to all federal, state and local government web resources and services.